createdAt,value
2022-09-06T00:01:14.129Z,72.21
2022-09-06T00:04:17.289Z,73.04
2022-09-06T00:07:20.057Z,73.63
2022-09-06T00:10:22.741Z,75.46
2022-09-06T00:13:26.897Z,75.58
2022-09-06T00:16:30.612Z,76.57
2022-09-06T00:19:33.461Z,77.05
2022-09-06T00:22:36.544Z,77.25
2022-09-06T00:25:39.320Z,77.69
2022-09-06T00:28:45.836Z,77.75
2022-09-06T00:31:48.577Z,77.78
2022-09-06T00:34:51.408Z,78.09
2022-09-06T00:37:57.633Z,77.97
2022-09-06T00:41:00.437Z,77.22
2022-09-06T00:44:04.742Z,77.03
2022-09-06T00:47:07.624Z,75.82
2022-09-06T00:50:11.112Z,74.71
2022-09-06T00:53:13.817Z,73.28
2022-09-06T00:56:16.547Z,71.41
2022-09-06T00:59:20.778Z,71.64
2022-09-06T01:02:23.760Z,72.43
2022-09-06T01:05:30.283Z,72.37
2022-09-06T01:08:40.464Z,72.29
2022-09-06T01:11:52.068Z,72.22
2022-09-06T01:15:12.253Z,72.35
2022-09-06T01:18:22.620Z,72.81
2022-09-06T01:21:40.723Z,72.94
2022-09-06T01:24:56.040Z,73.14
2022-09-06T01:28:28.589Z,73.67
2022-09-06T01:31:33.196Z,73.42
2022-09-06T01:34:37.625Z,73.18
2022-09-06T01:37:40.711Z,72.64
2022-09-06T01:40:43.514Z,72.46
2022-09-06T01:43:49.518Z,72.73
2022-09-06T01:46:54.695Z,72.33
2022-09-06T01:50:05.933Z,71.61
2022-09-06T01:53:14.791Z,71.63
2022-09-06T01:56:23.374Z,71.86
2022-09-06T01:59:37.456Z,71.63
2022-09-06T02:02:54.736Z,71.24
2022-09-06T02:05:59.367Z,71.66
2022-09-06T02:09:04.361Z,71.79
2022-09-06T02:12:07.432Z,71.69
2022-09-06T02:15:12.712Z,71.98
2022-09-06T02:18:17.217Z,72.55
2022-09-06T02:21:20.941Z,72.53
2022-09-06T02:24:24.901Z,72.72
2022-09-06T02:27:27.622Z,72.62
2022-09-06T02:30:31.961Z,73.05
2022-09-06T02:33:36.304Z,72.97
2022-09-06T02:36:39.020Z,73.14
2022-09-06T02:39:41.869Z,73.46
2022-09-06T02:42:44.889Z,73.76
2022-09-06T02:45:49.315Z,74.12
2022-09-06T02:48:52.103Z,73.91
2022-09-06T02:51:54.848Z,74.19
2022-09-06T02:54:57.689Z,73.98
2022-09-06T02:58:00.493Z,73.90
2022-09-06T03:01:05.594Z,74.68
2022-09-06T03:04:08.589Z,74.68
2022-09-06T03:07:11.484Z,75.13
2022-09-06T03:10:14.288Z,74.88
2022-09-06T03:13:18.109Z,75.08
2022-09-06T03:16:22.660Z,75.35
2022-09-06T03:19:25.431Z,75.33
2022-09-06T03:22:28.258Z,75.59
2022-09-06T03:25:31.036Z,75.86
2022-09-06T03:28:33.764Z,75.40
2022-09-06T03:31:38.062Z,75.47
2022-09-06T03:34:40.806Z,75.52
2022-09-06T03:37:43.575Z,75.60
2022-09-06T03:40:47.254Z,75.55
2022-09-06T03:43:49.939Z,75.43
2022-09-06T03:46:54.199Z,75.50
2022-09-06T03:49:56.921Z,75.85
2022-09-06T03:52:59.653Z,76.14
2022-09-06T03:56:02.503Z,76.72
2022-09-06T03:59:05.271Z,76.27
2022-09-06T04:02:09.442Z,75.86
2022-09-06T04:05:13.375Z,75.89
2022-09-06T04:08:17.219Z,75.59
2022-09-06T04:11:20.233Z,75.69
2022-09-06T04:14:23.007Z,75.88
2022-09-06T04:17:27.339Z,75.99
2022-09-06T04:20:30.142Z,76.04
2022-09-06T04:23:36.399Z,76.56
2022-09-06T04:26:42.015Z,76.28
2022-09-06T04:29:44.938Z,76.24
2022-09-06T04:32:49.248Z,76.79
2022-09-06T04:35:52.178Z,77.07
2022-09-06T04:38:55.694Z,76.97
2022-09-06T04:41:58.404Z,77.27
2022-09-06T04:45:01.104Z,77.19
2022-09-06T04:48:05.534Z,77.36
2022-09-06T04:51:08.329Z,77.53
2022-09-06T04:54:11.163Z,77.77
2022-09-06T04:57:13.955Z,78.13
2022-09-06T05:00:17.054Z,78.15
2022-09-06T05:03:21.293Z,78.71
2022-09-06T05:06:24.982Z,78.56
2022-09-06T05:09:27.915Z,79.14
2022-09-06T05:12:30.759Z,79.63
2022-09-06T05:15:33.672Z,80.28
2022-09-06T05:18:37.847Z,81.18
2022-09-06T05:21:43.472Z,81.14
2022-09-06T05:24:46.400Z,82.01
2022-09-06T05:27:49.251Z,82.54
2022-09-06T05:30:51.966Z,81.61
2022-09-06T05:33:58.439Z,81.11
2022-09-06T05:37:01.177Z,80.75
2022-09-06T05:40:04.588Z,80.62
2022-09-06T05:43:07.430Z,82.02
2022-09-06T05:46:10.555Z,82.60
2022-09-06T05:49:14.981Z,83.40
2022-09-06T05:52:18.407Z,80.81
2022-09-06T05:55:21.175Z,78.95
2022-09-06T05:58:23.941Z,77.68
2022-09-06T06:01:27.276Z,75.18
2022-09-06T06:04:31.479Z,73.77
2022-09-06T06:07:34.661Z,73.21
2022-09-06T06:10:39.495Z,73.78
2022-09-06T06:13:43.224Z,73.99
2022-09-06T06:16:46.016Z,73.94
2022-09-06T06:19:50.444Z,74.19
2022-09-06T06:22:53.226Z,74.29
2022-09-06T06:25:56.020Z,74.68
2022-09-06T06:29:01.880Z,74.66
2022-09-06T06:32:04.779Z,74.92
2022-09-06T06:35:10.019Z,75.03
2022-09-06T06:38:13.142Z,75.21
2022-09-06T06:41:16.561Z,75.04
2022-09-06T06:44:19.261Z,74.95
2022-09-06T06:47:22.182Z,74.36
2022-09-06T06:50:26.411Z,74.63
2022-09-06T06:53:29.145Z,72.91
2022-09-06T06:56:32.866Z,72.99
2022-09-06T06:59:35.687Z,73.09
2022-09-06T07:02:38.483Z,72.73
2022-09-06T07:09:07.560Z,71.73
2022-09-06T07:12:10.375Z,71.05
2022-09-06T07:15:13.166Z,70.81
2022-09-06T07:18:16.817Z,70.99
2022-09-06T07:21:41.376Z,71.48
2022-09-06T07:24:44.127Z,70.36
2022-09-06T07:27:47.884Z,71.33
2022-09-06T07:30:54.018Z,71.77
2022-09-06T07:33:56.806Z,70.99
2022-09-06T07:37:00.943Z,71.13
2022-09-06T07:40:04.688Z,72.37
2022-09-06T07:43:07.601Z,71.35
2022-09-06T07:46:11.180Z,72.18
2022-09-06T07:49:13.936Z,71.68
2022-09-06T07:55:42.994Z,71.91
2022-09-06T07:58:45.716Z,73.20
2022-09-06T08:01:49.533Z,71.57
2022-09-06T08:04:52.608Z,72.01
2022-09-06T08:11:20.290Z,69.80
2022-09-06T08:14:23.180Z,71.21
2022-09-06T08:17:26.067Z,70.49
2022-09-06T08:20:28.988Z,70.92
2022-09-06T08:23:33.242Z,70.22
2022-09-06T08:26:36.810Z,69.75
2022-09-06T08:29:40.008Z,70.66
2022-09-06T08:32:43.083Z,70.37
2022-09-06T08:35:47.013Z,67.64
2022-09-06T08:38:51.541Z,68.51
2022-09-06T08:41:56.808Z,68.19
2022-09-06T08:45:01.725Z,68.86
2022-09-06T08:48:05.003Z,66.59
2022-09-06T08:51:30.379Z,67.12
2022-09-06T08:54:38.222Z,67.35
2022-09-06T08:57:47.630Z,66.11
2022-09-06T09:00:53.387Z,67.51
2022-09-06T09:03:57.460Z,66.17
2022-09-06T09:07:01.836Z,66.81
2022-09-06T09:10:09.039Z,68.05
2022-09-06T09:13:21.890Z,65.85
2022-09-06T09:16:24.897Z,67.67
2022-09-06T09:19:27.867Z,66.70
2022-09-06T09:22:30.762Z,68.86
2022-09-06T09:25:35.292Z,67.41
2022-09-06T09:28:38.172Z,67.36
2022-09-06T09:31:41.890Z,67.11
2022-09-06T09:34:44.971Z,67.08
2022-09-06T09:37:49.698Z,66.39
2022-09-06T09:40:57.845Z,65.60
2022-09-06T09:44:04.764Z,66.38
2022-09-06T09:47:16.114Z,67.17
2022-09-06T09:50:27.520Z,66.79
2022-09-06T09:53:30.549Z,65.80
2022-09-06T09:56:41.755Z,65.38
2022-09-06T09:59:45.894Z,64.79
2022-09-06T10:02:48.715Z,65.05
2022-09-06T10:06:02.231Z,63.92
2022-09-06T10:09:31.204Z,63.99
2022-09-06T10:12:39.081Z,62.47
2022-09-06T10:15:42.216Z,61.78
2022-09-06T10:18:45.776Z,62.23
2022-09-06T10:21:48.790Z,61.16
2022-09-06T10:25:00.692Z,60.40
2022-09-06T10:28:33.252Z,60.07
2022-09-06T10:32:05.836Z,58.61
2022-09-06T10:35:16.419Z,59.39
2022-09-06T10:38:32.858Z,59.45
2022-09-06T10:41:49.344Z,58.82
2022-09-06T10:45:12.931Z,58.15
2022-09-06T10:48:19.445Z,58.47
2022-09-06T10:51:25.057Z,59.22
2022-09-06T10:54:28.553Z,58.43
2022-09-06T11:00:59.095Z,58.46
2022-09-06T11:04:09.134Z,57.64
2022-09-06T11:07:17.797Z,57.36
2022-09-06T11:10:23.457Z,56.54
2022-09-06T11:13:29.621Z,55.43
2022-09-06T11:16:40.162Z,55.53
2022-09-06T11:19:46.101Z,54.53
2022-09-06T11:23:14.156Z,53.15
2022-09-06T11:26:29.761Z,54.15
2022-09-06T11:29:33.012Z,54.11
2022-09-06T11:32:39.946Z,52.61
2022-09-06T11:35:43.280Z,53.35
2022-09-06T11:38:55.948Z,52.39
2022-09-06T11:41:58.968Z,51.57
2022-09-06T11:45:24.538Z,50.49
2022-09-06T11:49:04.027Z,51.30
2022-09-06T11:52:59.375Z,51.54
2022-09-06T11:56:19.160Z,51.01
2022-09-06T11:59:38.277Z,50.78
2022-09-06T12:02:43.596Z,50.66
2022-09-06T12:06:16.800Z,50.54
2022-09-06T12:09:30.606Z,49.06
2022-09-06T12:12:42.306Z,48.08
2022-09-06T12:15:46.449Z,48.52
2022-09-06T12:19:02.594Z,48.67
2022-09-06T12:22:06.178Z,48.24
2022-09-06T12:25:17.094Z,47.91
2022-09-06T12:28:30.490Z,47.26
2022-09-06T12:31:37.980Z,46.97
2022-09-06T12:34:41.046Z,47.63
2022-09-06T12:37:51.242Z,46.50
2022-09-06T12:40:58.569Z,45.36
2022-09-06T12:44:03.250Z,46.44
2022-09-06T12:47:08.214Z,46.98
2022-09-06T12:50:14.895Z,47.52
2022-09-06T12:53:25.066Z,48.60
2022-09-06T12:56:28.630Z,48.18
2022-09-06T12:59:33.517Z,48.39
2022-09-06T13:02:38.547Z,47.34
2022-09-06T13:05:41.936Z,46.47
2022-09-06T13:08:47.058Z,47.56
2022-09-06T13:11:51.507Z,46.70
2022-09-06T13:14:56.043Z,46.75
2022-09-06T13:18:20.111Z,48.22
2022-09-06T13:21:27.636Z,48.42
2022-09-06T13:24:45.833Z,47.35
2022-09-06T13:27:51.158Z,46.98
2022-09-06T13:31:06.114Z,46.81
2022-09-06T13:34:08.896Z,46.68
2022-09-06T13:37:11.922Z,48.10
2022-09-06T13:41:07.065Z,48.42
2022-09-06T13:44:07.844Z,48.69
2022-09-06T13:47:11.939Z,49.35
2022-09-06T13:50:15.936Z,48.92
2022-09-06T13:53:20.510Z,49.15
2022-09-06T13:56:23.290Z,49.22
2022-09-06T13:59:26.486Z,48.89
2022-09-06T14:02:30.860Z,49.24
2022-09-06T14:05:34.612Z,48.97
2022-09-06T14:09:03.325Z,48.43
2022-09-06T14:12:02.243Z,47.81
2022-09-06T14:15:05.858Z,47.15
2022-09-06T14:18:14.259Z,47.78
2022-09-06T14:21:17.318Z,47.66
2022-09-06T14:24:20.207Z,46.57
2022-09-06T14:27:23.222Z,45.98
2022-09-06T14:30:26.045Z,45.73
2022-09-06T14:33:30.194Z,45.84
2022-09-06T14:36:33.194Z,44.69
2022-09-06T14:39:35.939Z,44.79
2022-09-06T14:42:38.806Z,44.37
2022-09-06T14:45:41.647Z,44.61
2022-09-06T14:48:46.051Z,44.86
2022-09-06T14:51:48.771Z,45.51
2022-09-06T14:54:51.521Z,46.47
2022-09-06T14:57:54.443Z,46.82
2022-09-06T15:00:57.157Z,47.70
2022-09-06T15:04:03.282Z,47.49
2022-09-06T15:07:11.924Z,47.28
2022-09-06T15:10:14.590Z,47.02
2022-09-06T15:13:18.334Z,47.03
2022-09-06T15:16:21.382Z,47.18
2022-09-06T15:19:25.736Z,46.40
2022-09-06T15:22:28.580Z,45.86
2022-09-06T15:25:32.093Z,46.44
2022-09-06T15:28:37.067Z,46.79
2022-09-06T15:31:40.062Z,46.72
2022-09-06T15:34:44.320Z,46.18
2022-09-06T15:37:48.630Z,45.29
2022-09-06T15:40:52.012Z,44.95
2022-09-06T15:43:56.655Z,45.37
2022-09-06T15:46:59.369Z,44.94
2022-09-06T15:50:03.550Z,44.86
2022-09-06T15:53:06.262Z,45.33
2022-09-06T15:56:10.144Z,45.49
2022-09-06T15:59:13.217Z,46.14
2022-09-06T16:02:16.116Z,46.18
2022-09-06T16:08:45.628Z,46.25
2022-09-06T16:11:48.614Z,46.18
2022-09-06T16:14:52.060Z,46.79
2022-09-06T16:17:55.656Z,47.21
2022-09-06T16:21:00.026Z,47.78
2022-09-06T16:24:03.503Z,48.46
2022-09-06T16:27:06.205Z,48.80
2022-09-06T16:30:10.047Z,48.38
2022-09-06T16:33:12.809Z,47.92
2022-09-06T16:36:17.293Z,47.77
2022-09-06T16:39:20.046Z,47.94
2022-09-06T16:42:22.880Z,47.38
2022-09-06T16:45:25.640Z,47.48
2022-09-06T16:48:28.709Z,47.23
2022-09-06T16:51:32.995Z,47.03
2022-09-06T16:54:36.474Z,47.12
2022-09-06T16:57:39.772Z,47.19
2022-09-06T17:00:42.638Z,47.34
2022-09-06T17:03:45.358Z,47.76
2022-09-06T17:06:49.634Z,47.69
2022-09-06T17:09:52.411Z,47.75
2022-09-06T17:12:55.241Z,47.91
2022-09-06T17:16:17.204Z,47.66
2022-09-06T17:19:22.797Z,48.16
2022-09-06T17:22:26.846Z,48.56
2022-09-06T17:25:29.633Z,48.81
2022-09-06T17:29:13.969Z,48.98
2022-09-06T17:32:16.676Z,49.11
2022-09-06T17:35:19.449Z,49.05
2022-09-06T17:38:23.598Z,49.33
2022-09-06T17:41:28.013Z,49.49
2022-09-06T17:44:30.685Z,49.42
2022-09-06T17:47:36.323Z,49.66
2022-09-06T17:50:41.429Z,49.91
2022-09-06T17:53:46.774Z,49.84
2022-09-06T17:56:49.553Z,50.35
2022-09-06T17:59:52.300Z,50.47
2022-09-06T18:02:55.190Z,50.51
2022-09-06T18:06:03.560Z,50.24
2022-09-06T18:09:09.556Z,50.24
2022-09-06T18:12:12.323Z,50.42
2022-09-06T18:15:15.033Z,50.36
2022-09-06T18:18:18.004Z,50.56
2022-09-06T18:21:20.796Z,50.83
2022-09-06T18:24:25.216Z,50.84
2022-09-06T18:27:28.264Z,50.69
2022-09-06T18:30:30.950Z,50.79
2022-09-06T18:33:35.002Z,51.03
2022-09-06T18:36:38.042Z,51.27
2022-09-06T18:39:42.953Z,52.42
2022-09-06T18:42:45.730Z,53.55
2022-09-06T18:45:48.638Z,54.16
2022-09-06T18:48:51.386Z,55.03
2022-09-06T18:51:54.141Z,56.23
2022-09-06T18:54:58.390Z,56.92
2022-09-06T18:58:03.804Z,57.26
2022-09-06T19:01:07.778Z,57.73
2022-09-06T19:04:10.862Z,58.04
2022-09-06T19:07:13.698Z,58.77
2022-09-06T19:10:18.153Z,59.08
2022-09-06T19:13:21.490Z,59.17
2022-09-06T19:16:24.695Z,60.00
2022-09-06T19:19:27.763Z,60.26
2022-09-06T19:22:30.564Z,60.42
2022-09-06T19:25:34.745Z,60.58
2022-09-06T19:28:37.959Z,60.77
2022-09-06T19:31:40.892Z,60.73
2022-09-06T19:34:43.847Z,60.84
2022-09-06T19:37:46.647Z,61.05
2022-09-06T19:40:50.802Z,61.64
2022-09-06T19:43:54.157Z,61.71
2022-09-06T19:46:57.079Z,61.71
2022-09-06T19:49:59.875Z,62.05
2022-09-06T19:53:07.062Z,61.70
2022-09-06T19:56:11.957Z,61.68
2022-09-06T19:59:15.318Z,62.17
2022-09-06T20:02:18.629Z,62.62
2022-09-06T20:05:21.578Z,63.18
2022-09-06T20:08:24.304Z,63.95
2022-09-06T20:11:29.584Z,64.38
2022-09-06T20:14:32.323Z,64.42
2022-09-06T20:17:35.108Z,64.51
2022-09-06T20:20:37.942Z,64.45
2022-09-06T20:23:40.630Z,64.72
2022-09-06T20:26:45.515Z,64.56
2022-09-06T20:29:48.202Z,64.56
2022-09-06T20:32:50.976Z,65.11
2022-09-06T20:35:57.526Z,65.67
2022-09-06T20:39:00.226Z,65.74
2022-09-06T20:42:04.523Z,65.86
2022-09-06T20:45:08.926Z,66.24
2022-09-06T20:48:11.734Z,66.45
2022-09-06T20:51:15.584Z,66.61
2022-09-06T20:54:18.294Z,66.73
2022-09-06T20:57:22.390Z,67.01
2022-09-06T21:00:25.264Z,66.99
2022-09-06T21:03:28.040Z,67.19
2022-09-06T21:06:33.681Z,67.61
2022-09-06T21:09:36.849Z,67.43
2022-09-06T21:12:40.903Z,67.45
2022-09-06T21:15:43.615Z,66.94
2022-09-06T21:18:46.373Z,66.14
2022-09-06T21:21:49.006Z,71.59
2022-09-06T21:24:51.650Z,75.43
2022-09-06T21:27:56.022Z,77.36
2022-09-06T21:31:02.962Z,75.57
2022-09-06T21:34:06.426Z,75.73
2022-09-06T21:37:09.169Z,74.98
2022-09-06T21:40:13.008Z,74.34
2022-09-06T21:43:17.212Z,74.20
2022-09-06T21:46:20.758Z,73.73
2022-09-06T21:49:23.648Z,73.91
2022-09-06T21:52:26.381Z,73.91
2022-09-06T21:55:29.097Z,74.13
2022-09-06T21:58:33.713Z,74.08
2022-09-06T22:01:37.055Z,73.93
2022-09-06T22:04:39.704Z,74.17
2022-09-06T22:07:42.756Z,74.24
2022-09-06T22:10:45.521Z,74.28
2022-09-06T22:13:50.145Z,74.21
2022-09-06T22:16:53.524Z,74.07
2022-09-06T22:19:56.229Z,74.30
2022-09-06T22:22:59.058Z,73.84
2022-09-06T22:26:02.880Z,74.41
2022-09-06T22:29:08.403Z,74.54
2022-09-06T22:32:11.595Z,74.65
2022-09-06T22:35:16.736Z,75.06
2022-09-06T22:38:19.623Z,75.25
2022-09-06T22:41:22.466Z,75.22
2022-09-06T22:44:26.627Z,75.38
2022-09-06T22:47:29.521Z,75.55
2022-09-06T22:50:32.460Z,76.02
2022-09-06T22:53:35.378Z,76.09
2022-09-06T22:56:38.452Z,76.03
2022-09-06T22:59:42.660Z,76.22
2022-09-06T23:02:45.412Z,76.48
2022-09-06T23:05:48.153Z,76.58
2022-09-06T23:08:50.914Z,76.52
2022-09-06T23:11:53.782Z,76.70
2022-09-06T23:14:58.283Z,76.85
2022-09-06T23:18:01.183Z,77.05
2022-09-06T23:21:07.871Z,76.89
2022-09-06T23:24:10.665Z,77.35
2022-09-06T23:27:13.346Z,78.12
2022-09-06T23:30:17.488Z,78.64
2022-09-06T23:33:20.255Z,79.50
2022-09-06T23:36:23.000Z,80.05
2022-09-06T23:39:25.841Z,80.64
2022-09-06T23:42:28.685Z,80.21
2022-09-06T23:45:33.065Z,81.15
2022-09-06T23:48:36.172Z,81.11
2022-09-06T23:51:39.160Z,80.85
2022-09-06T23:54:42.050Z,79.83
2022-09-06T23:57:44.900Z,80.14
